createdAt,value
2023-04-18T00:00:22.052Z,831
2023-04-18T00:05:52.698Z,832
2023-04-18T00:11:23.170Z,840
2023-04-18T00:16:53.657Z,844
2023-04-18T00:22:24.250Z,839
2023-04-18T00:27:54.879Z,840
2023-04-18T00:33:25.353Z,840
2023-04-18T00:38:54.845Z,841
2023-04-18T00:44:25.326Z,838
2023-04-18T00:49:55.809Z,845
2023-04-18T00:55:25.283Z,851
2023-04-18T01:00:55.836Z,848
2023-04-18T01:11:55.744Z,850
2023-04-18T01:17:26.258Z,853
2023-04-18T01:22:56.794Z,860
2023-04-18T01:28:27.297Z,864
2023-04-18T01:33:57.773Z,864
2023-04-18T01:39:28.416Z,869
2023-04-18T01:44:58.898Z,866
2023-04-18T01:50:29.404Z,871
2023-04-18T01:55:58.876Z,865
2023-04-18T02:01:29.321Z,871
2023-04-18T02:06:59.924Z,867
2023-04-18T02:12:30.432Z,865
2023-04-18T02:18:00.912Z,875
2023-04-18T02:23:30.386Z,874
2023-04-18T02:29:00.858Z,873
2023-04-18T02:34:31.472Z,866
2023-04-18T02:40:01.977Z,875
2023-04-18T02:45:31.467Z,876
2023-04-18T02:51:01.998Z,880
2023-04-18T02:56:32.420Z,880
2023-04-18T03:02:01.943Z,891
2023-04-18T03:07:32.389Z,894
2023-04-18T03:13:02.894Z,890
2023-04-18T03:18:33.467Z,891
2023-04-18T03:24:03.932Z,888
2023-04-18T03:29:34.416Z,886
2023-04-18T03:35:05.054Z,885
2023-04-18T03:40:35.511Z,882
2023-04-18T03:46:06.075Z,875
2023-04-18T03:51:36.556Z,878
2023-04-18T03:57:07.060Z,872
2023-04-18T04:02:37.757Z,866
2023-04-18T04:08:08.135Z,859
2023-04-18T04:13:38.621Z,861
2023-04-18T04:19:09.210Z,858
2023-04-18T04:24:39.703Z,863
2023-04-18T04:30:12.011Z,848
2023-04-18T04:35:39.659Z,846
2023-04-18T04:41:10.145Z,847
2023-04-18T04:46:39.629Z,847
2023-04-18T04:52:10.117Z,838
2023-04-18T04:57:40.597Z,838
2023-04-18T05:03:10.256Z,833
2023-04-18T05:08:40.544Z,830
2023-04-18T05:15:17.155Z,818
2023-04-18T05:20:47.723Z,812
2023-04-18T05:26:18.225Z,805
2023-04-18T05:31:48.726Z,805
2023-04-18T05:37:18.349Z,789
2023-04-18T05:42:48.817Z,784
2023-04-18T05:48:19.345Z,786
2023-04-18T05:53:49.879Z,786
2023-04-18T05:59:20.384Z,777
2023-04-18T06:04:51.120Z,767
2023-04-18T06:10:21.451Z,776
2023-04-18T06:15:51.973Z,771
2023-04-18T06:21:22.545Z,765
2023-04-18T06:26:52.035Z,760
2023-04-18T06:32:22.522Z,758
2023-04-18T06:37:52.986Z,754
2023-04-18T06:43:23.562Z,747
2023-04-18T06:48:54.055Z,746
2023-04-18T06:54:24.528Z,740
2023-04-18T06:59:54.045Z,737
2023-04-18T07:05:24.509Z,742
2023-04-18T07:10:55.079Z,737
2023-04-18T07:16:25.629Z,732
2023-04-18T07:21:56.083Z,730
2023-04-18T07:27:26.630Z,730
2023-04-18T07:32:57.232Z,723
2023-04-18T07:38:27.785Z,721
2023-04-18T07:43:58.268Z,717
2023-04-18T07:49:28.776Z,719
2023-04-18T07:54:58.261Z,716
2023-04-18T08:05:59.214Z,710
2023-04-18T08:11:29.912Z,705
2023-04-18T08:17:00.397Z,705
2023-04-18T08:22:29.875Z,696
2023-04-18T08:28:00.331Z,695
2023-04-18T08:33:30.810Z,694
2023-04-18T08:39:01.415Z,695
2023-04-18T08:44:31.885Z,698
2023-04-18T08:50:02.423Z,690
2023-04-18T08:55:33.075Z,688
2023-04-18T09:01:03.647Z,685
2023-04-18T09:06:34.015Z,687
2023-04-18T09:12:04.613Z,686
2023-04-18T09:17:35.114Z,678
2023-04-18T09:23:05.569Z,676
2023-04-18T09:28:36.155Z,677
2023-04-18T09:34:06.643Z,676
2023-04-18T09:39:36.135Z,671
2023-04-18T09:45:06.616Z,678
2023-04-18T09:50:37.096Z,673
2023-04-18T09:56:07.669Z,673
2023-04-18T10:07:08.709Z,664
2023-04-18T10:18:09.860Z,668
2023-04-18T10:23:40.403Z,667
2023-04-18T10:29:10.887Z,664
2023-04-18T10:34:41.476Z,660
2023-04-18T10:40:12.097Z,661
2023-04-18T10:45:42.550Z,659
2023-04-18T10:51:13.044Z,659
2023-04-18T10:56:43.648Z,660
2023-04-18T11:02:14.153Z,662
2023-04-18T11:07:44.606Z,648
2023-04-18T11:13:15.187Z,647
2023-04-18T11:18:45.685Z,645
2023-04-18T11:24:16.280Z,647
2023-04-18T11:29:46.764Z,646
2023-04-18T11:35:17.271Z,646
2023-04-18T11:40:47.885Z,650
2023-04-18T11:46:18.405Z,649
2023-04-18T11:51:48.824Z,643
2023-04-18T11:57:19.414Z,635
2023-04-18T12:03:56.161Z,634
2023-04-18T12:09:25.609Z,635
2023-04-18T12:14:56.080Z,640
2023-04-18T12:20:25.949Z,642
2023-04-18T12:25:56.297Z,644
2023-04-18T12:31:26.799Z,644
2023-04-18T12:36:56.262Z,640
2023-04-18T12:42:26.761Z,635
2023-04-18T12:47:56.301Z,636
2023-04-18T12:53:26.724Z,634
2023-04-18T12:58:57.183Z,628
2023-04-18T13:04:27.998Z,629
2023-04-18T13:09:58.275Z,625
2023-04-18T13:15:28.708Z,623
2023-04-18T13:20:59.429Z,620
2023-04-18T13:26:29.956Z,625
2023-04-18T13:32:00.462Z,620
2023-04-18T13:37:31.008Z,616
2023-04-18T13:43:01.481Z,616
2023-04-18T13:48:30.974Z,613
2023-04-18T13:54:00.451Z,610
2023-04-18T13:59:30.946Z,610
2023-04-18T14:05:01.791Z,613
2023-04-18T14:10:32.013Z,610
2023-04-18T14:16:02.576Z,610
2023-04-18T14:21:33.150Z,614
2023-04-18T14:27:03.620Z,608
2023-04-18T14:32:34.117Z,607
2023-04-18T14:38:04.682Z,605
2023-04-18T14:43:35.170Z,605
2023-04-18T14:49:04.660Z,608
2023-04-18T14:54:35.137Z,606
2023-04-18T15:00:05.810Z,607
2023-04-18T15:05:36.318Z,604
2023-04-18T15:11:06.839Z,605
2023-04-18T15:16:37.300Z,601
2023-04-18T15:22:07.854Z,604
2023-04-18T15:27:38.349Z,603
2023-04-18T15:33:08.845Z,604
2023-04-18T15:38:39.394Z,594
2023-04-18T15:44:09.864Z,600
2023-04-18T15:49:40.346Z,600
2023-04-18T15:55:09.829Z,601
2023-04-18T16:00:40.306Z,596
2023-04-18T16:11:40.268Z,599
2023-04-18T16:17:10.743Z,575
2023-04-18T16:22:41.324Z,605
2023-04-18T16:28:11.775Z,617
2023-04-18T16:33:42.467Z,626
2023-04-18T16:39:12.901Z,634
2023-04-18T16:44:43.375Z,650
2023-04-18T16:50:14.002Z,677
2023-04-18T16:55:44.551Z,676
2023-04-18T17:01:15.055Z,695
2023-04-18T17:06:45.588Z,715
2023-04-18T17:12:16.079Z,713
2023-04-18T17:17:46.683Z,735
2023-04-18T17:23:17.138Z,742
2023-04-18T17:28:47.632Z,748
2023-04-18T17:34:18.237Z,761
2023-04-18T17:39:48.711Z,744
2023-04-18T17:45:19.196Z,750
2023-04-18T17:50:48.673Z,774
2023-04-18T17:56:19.158Z,778
2023-04-18T18:01:49.827Z,789
2023-04-18T18:07:20.204Z,791
2023-04-18T18:12:50.695Z,797
2023-04-18T18:18:21.317Z,810
2023-04-18T18:23:51.779Z,816
2023-04-18T18:29:22.270Z,823
2023-04-18T18:34:52.988Z,834
2023-04-18T18:40:23.458Z,839
2023-04-18T18:45:52.987Z,842
2023-04-18T18:51:23.430Z,837
2023-04-18T18:56:53.917Z,851
2023-04-18T19:02:23.559Z,849
2023-04-18T19:07:53.887Z,855
2023-04-18T19:13:24.367Z,858
2023-04-18T19:18:54.926Z,852
2023-04-18T19:24:25.412Z,856
2023-04-18T19:29:55.874Z,859
2023-04-18T19:35:26.613Z,852
2023-04-18T19:40:57.091Z,847
2023-04-18T19:46:27.572Z,846
2023-04-18T19:51:58.119Z,844
2023-04-18T19:57:28.593Z,848
2023-04-18T20:02:59.211Z,849
2023-04-18T20:08:29.698Z,850
2023-04-18T20:14:00.157Z,855
2023-04-18T20:19:29.803Z,843
2023-04-18T20:25:00.132Z,853
2023-04-18T20:30:30.631Z,857
2023-04-18T20:36:01.189Z,854
2023-04-18T20:41:31.691Z,860
2023-04-18T20:47:02.195Z,859
2023-04-18T20:52:32.795Z,858
2023-04-18T20:58:03.221Z,859
2023-04-18T21:03:33.799Z,863
2023-04-18T21:09:03.213Z,861
2023-04-18T21:14:32.713Z,861
2023-04-18T21:20:03.200Z,871
2023-04-18T21:25:33.675Z,868
2023-04-18T21:31:04.330Z,867
2023-04-18T21:36:34.756Z,859
2023-04-18T21:42:05.357Z,866
2023-04-18T21:47:35.931Z,871
2023-04-18T21:53:06.401Z,875
2023-04-18T21:58:36.872Z,876
2023-04-18T22:04:07.651Z,880
2023-04-18T22:09:38.021Z,883
2023-04-18T22:15:08.619Z,885
2023-04-18T22:20:39.104Z,893
2023-04-18T22:26:09.579Z,895
2023-04-18T22:31:40.067Z,894
2023-04-18T22:37:10.640Z,891
2023-04-18T22:42:41.133Z,891
2023-04-18T22:48:11.726Z,890
2023-04-18T22:53:42.204Z,889
2023-04-18T22:59:12.672Z,897
2023-04-18T23:04:42.313Z,904
2023-04-18T23:10:12.681Z,904
2023-04-18T23:15:43.252Z,902
2023-04-18T23:21:12.636Z,900
2023-04-18T23:26:43.148Z,902
2023-04-18T23:32:13.694Z,912
2023-04-18T23:37:44.297Z,909
2023-04-18T23:43:14.706Z,905
2023-04-18T23:48:45.312Z,911
2023-04-18T23:54:16.012Z,904
2023-04-18T23:59:46.264Z,909
